KSGU

St George Regional Airport

St George, Utah, USA
KSGU 181120Z 1812/1912 VRB05KT P6SM SKC
Issued Valid From Valid To
Oct-18 @ 11:20 UTC
(an hour ago)
Oct-18 @ 12:00 UTC
(26 minutes ago)
Oct-19 @ 12:00 UTC
(in 24 hours)
Oct-18 @ 12:00 to Oct-19 @ 12:00
KSGU 181120Z 1812/1912 VRB05KT P6SM SKC
Wind Visibility Clouds
Variable at 5 knots Greater than 6 miles
  • Clear skies
KSGU 181120Z 1812/1912 VRB05KT P6SM SKC
Issued Oct-18 @ 11:20 UTC
(an hour ago)
Valid From Oct-18 @ 12:00 UTC
(26 minutes ago)
Valid To Oct-19 @ 12:00 UTC
(in 24 hours)
Oct-18 @ 12:00 - Oct-19 @ 12:00
Wind Visibility
Variable at 5 knots Greater than 6 miles
Clouds
  • Clear skies